createdAt,value
2022-09-09T00:03:04.486Z,15.10
2022-09-09T00:06:14.012Z,15.70
2022-09-09T00:09:19.785Z,14.43
2022-09-09T00:12:31.274Z,14.10
2022-09-09T00:15:40.949Z,14.65
2022-09-09T00:18:54.520Z,14.33
2022-09-09T00:22:09.697Z,14.10
2022-09-09T00:25:17.853Z,13.68
2022-09-09T00:28:25.153Z,14.15
2022-09-09T00:31:31.684Z,13.15
2022-09-09T00:34:35.699Z,13.98
2022-09-09T00:37:43.031Z,13.63
2022-09-09T00:40:53.179Z,13.55
2022-09-09T00:44:05.337Z,13.05
2022-09-09T00:47:43.354Z,13.18
2022-09-09T00:50:56.233Z,12.50
2022-09-09T00:54:30.178Z,13.55
2022-09-09T00:57:35.052Z,13.93
2022-09-09T01:04:00.558Z,14.70
2022-09-09T01:07:09.768Z,14.25
2022-09-09T01:10:26.981Z,14.43
2022-09-09T01:13:32.203Z,14.50
2022-09-09T01:16:38.910Z,15.35
2022-09-09T01:19:57.020Z,15.65
2022-09-09T01:23:29.155Z,14.35
2022-09-09T01:26:54.612Z,14.43
2022-09-09T01:30:01.945Z,15.57
2022-09-09T01:33:06.452Z,14.95
2022-09-09T01:36:14.983Z,15.23
2022-09-09T01:39:27.236Z,15.13
2022-09-09T01:42:38.632Z,15.57
2022-09-09T01:45:43.844Z,16.02
2022-09-09T01:48:48.099Z,15.10
2022-09-09T01:51:55.542Z,15.80
2022-09-09T01:55:08.623Z,15.90
2022-09-09T01:58:31.455Z,16.25
2022-09-09T02:01:51.184Z,14.52
2022-09-09T02:04:57.427Z,16.35
2022-09-09T02:08:09.204Z,15.65
2022-09-09T02:11:25.096Z,15.63
2022-09-09T02:14:43.636Z,15.18
2022-09-09T02:17:51.086Z,14.75
2022-09-09T02:20:56.106Z,15.63
2022-09-09T02:24:05.472Z,16.48
2022-09-09T02:27:15.589Z,15.95
2022-09-09T02:30:21.293Z,15.73
2022-09-09T02:33:36.490Z,15.00
2022-09-09T02:36:42.484Z,15.20
2022-09-09T02:39:45.771Z,15.50
2022-09-09T02:42:52.618Z,16.52
2022-09-09T02:46:09.106Z,14.93
2022-09-09T02:49:20.379Z,15.40
2022-09-09T02:52:30.537Z,15.32
2022-09-09T02:55:43.293Z,15.65
2022-09-09T02:58:48.485Z,14.40
2022-09-09T03:01:54.401Z,15.40
2022-09-09T03:04:57.786Z,15.60
2022-09-09T03:08:01.040Z,15.45
2022-09-09T03:11:04.317Z,15.13
2022-09-09T03:14:12.313Z,15.40
2022-09-09T03:17:18.740Z,15.13
2022-09-09T03:20:29.590Z,15.68
2022-09-09T03:23:32.870Z,15.50
2022-09-09T03:26:39.307Z,15.63
2022-09-09T03:29:45.932Z,15.18
2022-09-09T03:32:54.457Z,15.13
2022-09-09T03:35:58.654Z,15.63
2022-09-09T03:39:03.998Z,15.48
2022-09-09T03:42:08.522Z,15.27
2022-09-09T03:45:12.732Z,16.15
2022-09-09T03:48:20.637Z,15.70
2022-09-09T03:51:24.179Z,16.00
2022-09-09T03:54:28.259Z,16.80
2022-09-09T03:57:35.867Z,16.23
2022-09-09T04:00:43.262Z,15.93
2022-09-09T04:03:48.087Z,16.80
2022-09-09T04:06:51.889Z,15.48
2022-09-09T04:09:55.546Z,16.05
2022-09-09T04:12:58.923Z,15.75
2022-09-09T04:16:04.810Z,15.90
2022-09-09T04:19:10.345Z,16.27
2022-09-09T04:22:13.527Z,16.38
2022-09-09T04:25:16.854Z,16.00
2022-09-09T04:28:21.265Z,16.52
2022-09-09T04:31:25.585Z,16.98
2022-09-09T04:34:33.829Z,16.70
2022-09-09T04:37:37.080Z,16.25
2022-09-09T04:40:43.892Z,17.30
2022-09-09T04:43:47.481Z,17.25
2022-09-09T04:46:52.039Z,16.80
2022-09-09T04:49:57.673Z,17.15
2022-09-09T04:53:03.412Z,17.08
2022-09-09T04:56:08.742Z,16.65
2022-09-09T04:59:16.376Z,16.63
2022-09-09T05:02:25.221Z,16.88
2022-09-09T05:05:32.662Z,16.80
2022-09-09T05:08:36.312Z,16.80
2022-09-09T05:11:39.806Z,17.15
2022-09-09T05:14:48.034Z,16.27
2022-09-09T05:17:53.445Z,16.05
2022-09-09T05:21:03.145Z,16.50
2022-09-09T05:24:07.306Z,15.68
2022-09-09T05:27:13.169Z,16.30
2022-09-09T05:30:17.734Z,17.05
2022-09-09T05:33:22.145Z,17.42
2022-09-09T05:36:27.094Z,17.27
2022-09-09T05:39:34.092Z,16.73
2022-09-09T05:42:37.492Z,16.65
2022-09-09T05:45:41.273Z,16.08
2022-09-09T05:48:47.301Z,15.75
2022-09-09T05:51:54.439Z,15.15
2022-09-09T05:54:58.240Z,15.95
2022-09-09T05:58:02.742Z,15.10
2022-09-09T06:01:09.666Z,14.57
2022-09-09T06:04:16.249Z,15.25
2022-09-09T06:07:28.647Z,19.83
2022-09-09T06:10:32.084Z,15.55
2022-09-09T06:13:36.939Z,15.02
2022-09-09T06:16:43.444Z,15.27
2022-09-09T06:19:53.581Z,15.52
2022-09-09T06:22:58.424Z,15.77
2022-09-09T06:26:07.794Z,15.32
2022-09-09T06:29:12.501Z,15.27
2022-09-09T06:32:17.007Z,16.65
2022-09-09T06:35:20.981Z,16.20
2022-09-09T06:38:26.224Z,24.38
2022-09-09T06:41:34.244Z,13.73
2022-09-09T06:44:39.971Z,13.93
2022-09-09T06:47:46.954Z,13.82
2022-09-09T06:50:51.950Z,13.18
2022-09-09T06:53:59.257Z,14.18
2022-09-09T06:57:15.659Z,13.65
2022-09-09T07:00:28.492Z,13.82
2022-09-09T07:03:33.409Z,13.82
2022-09-09T07:06:40.708Z,14.23
2022-09-09T07:09:47.655Z,14.68
2022-09-09T07:12:54.638Z,14.63
2022-09-09T07:16:06.887Z,15.37
2022-09-09T07:19:10.654Z,15.25
2022-09-09T07:22:17.228Z,16.58
2022-09-09T07:25:23.290Z,15.65
2022-09-09T07:28:27.516Z,15.30
2022-09-09T07:31:35.701Z,15.43
2022-09-09T07:34:39.271Z,15.30
2022-09-09T07:37:45.736Z,14.57
2022-09-09T07:40:57.216Z,15.55
2022-09-09T07:44:08.535Z,17.38
2022-09-09T07:47:13.428Z,15.70
2022-09-09T07:50:21.228Z,14.80
2022-09-09T07:53:24.988Z,15.73
2022-09-09T07:56:30.663Z,16.15
2022-09-09T07:59:34.770Z,15.68
2022-09-09T08:02:39.328Z,16.77
2022-09-09T08:05:44.127Z,16.92
2022-09-09T08:08:52.072Z,16.63
2022-09-09T08:11:57.882Z,17.38
2022-09-09T08:15:02.523Z,17.27
2022-09-09T08:18:09.980Z,17.65
2022-09-09T08:21:16.344Z,18.08
2022-09-09T08:24:20.719Z,17.85
2022-09-09T08:27:28.408Z,17.98
2022-09-09T08:30:33.037Z,16.85
2022-09-09T08:33:39.494Z,17.30
2022-09-09T08:36:45.497Z,16.80
2022-09-09T08:39:53.949Z,17.25
2022-09-09T08:43:04.108Z,17.85
2022-09-09T08:46:13.681Z,18.60
2022-09-09T08:49:43.069Z,19.33
2022-09-09T08:52:54.843Z,19.30
2022-09-09T08:56:00.540Z,20.42
2022-09-09T08:59:21.357Z,21.25
2022-09-09T09:02:31.897Z,21.02
2022-09-09T09:05:43.054Z,20.50
2022-09-09T09:08:54.254Z,20.88
2022-09-09T09:12:02.016Z,21.33
2022-09-09T09:15:20.179Z,21.30
2022-09-09T09:18:24.298Z,20.33
2022-09-09T09:21:36.788Z,20.67
2022-09-09T09:24:48.539Z,20.50
2022-09-09T09:27:59.465Z,21.08
2022-09-09T09:31:08.400Z,20.80
2022-09-09T09:34:13.915Z,22.08
2022-09-09T09:37:20.670Z,20.80
2022-09-09T09:40:25.873Z,20.98
2022-09-09T09:43:30.886Z,20.05
2022-09-09T09:46:38.421Z,21.73
2022-09-09T09:49:55.446Z,22.90
2022-09-09T09:53:02.458Z,22.65
2022-09-09T09:56:10.613Z,22.27
2022-09-09T09:59:23.722Z,21.77
2022-09-09T10:02:45.746Z,20.50
2022-09-09T10:05:55.867Z,20.13
2022-09-09T10:08:59.041Z,20.02
2022-09-09T10:12:10.793Z,20.92
2022-09-09T10:15:30.995Z,19.63
2022-09-09T10:18:47.156Z,20.70
2022-09-09T10:22:14.413Z,23.65
2022-09-09T10:25:33.411Z,22.35
2022-09-09T10:29:02.565Z,22.77
2022-09-09T10:32:28.178Z,21.67
2022-09-09T10:35:37.761Z,22.10
2022-09-09T10:38:44.461Z,22.20
2022-09-09T10:41:57.005Z,22.02
2022-09-09T10:45:17.040Z,22.33
2022-09-09T10:48:47.418Z,22.00
2022-09-09T10:52:01.227Z,21.83
2022-09-09T10:55:14.205Z,22.65
2022-09-09T10:58:25.796Z,21.63
2022-09-09T11:01:34.550Z,26.00
2022-09-09T11:04:44.432Z,24.67
2022-09-09T11:07:54.242Z,17.60
2022-09-09T11:11:04.785Z,24.38
2022-09-09T11:14:17.610Z,24.15
2022-09-09T11:17:24.165Z,24.83
2022-09-09T11:20:28.766Z,23.50
2022-09-09T11:23:42.264Z,32.72
2022-09-09T11:26:52.958Z,23.88
2022-09-09T11:30:37.783Z,22.67
2022-09-09T11:34:03.079Z,21.30
2022-09-09T11:37:33.553Z,20.63
2022-09-09T11:43:44.094Z,21.45
2022-09-09T11:46:52.083Z,21.02
2022-09-09T11:49:56.311Z,20.60
2022-09-09T11:53:32.433Z,21.05
2022-09-09T11:56:45.021Z,21.17
2022-09-09T11:59:54.151Z,21.75
2022-09-09T12:02:57.864Z,20.92
2022-09-09T12:06:02.634Z,21.17
2022-09-09T12:09:12.352Z,20.00
2022-09-09T12:12:32.786Z,21.33
2022-09-09T12:18:42.497Z,20.90
2022-09-09T12:21:53.953Z,21.17
2022-09-09T12:25:06.912Z,21.65
2022-09-09T12:28:19.389Z,21.50
2022-09-09T12:31:29.247Z,21.35
2022-09-09T12:34:40.470Z,24.60
2022-09-09T12:37:50.205Z,22.60
2022-09-09T12:40:58.305Z,22.30
2022-09-09T12:44:09.017Z,22.92
2022-09-09T12:47:15.419Z,24.20
2022-09-09T12:50:21.632Z,23.48
2022-09-09T12:53:28.057Z,21.88
2022-09-09T12:56:33.736Z,22.70
2022-09-09T12:59:43.413Z,23.88
2022-09-09T13:02:53.239Z,23.27
2022-09-09T13:06:01.329Z,24.00
2022-09-09T13:09:06.460Z,24.17
2022-09-09T13:12:15.950Z,25.50
2022-09-09T13:15:24.235Z,25.27
2022-09-09T13:18:31.882Z,25.00
2022-09-09T13:21:38.279Z,25.13
2022-09-09T13:24:43.713Z,25.02
2022-09-09T13:27:56.706Z,25.15
2022-09-09T13:31:04.744Z,25.92
2022-09-09T13:34:15.460Z,76.00
2022-09-09T13:37:25.147Z,27.60
2022-09-09T13:40:29.833Z,27.63
2022-09-09T13:43:36.862Z,24.88
2022-09-09T13:46:45.814Z,24.65
2022-09-09T13:49:50.476Z,25.83
2022-09-09T13:52:56.191Z,24.98
2022-09-09T13:56:00.629Z,24.63
2022-09-09T13:59:05.452Z,22.30
2022-09-09T14:02:11.682Z,23.95
2022-09-09T14:05:16.318Z,24.15
2022-09-09T14:08:28.484Z,23.33
2022-09-09T14:11:32.967Z,24.38
2022-09-09T14:14:37.344Z,24.17
2022-09-09T14:17:44.845Z,22.95
2022-09-09T14:20:49.341Z,23.77
2022-09-09T14:23:53.759Z,24.20
2022-09-09T14:26:57.536Z,25.33
2022-09-09T14:30:02.040Z,25.00
2022-09-09T14:33:07.659Z,28.27
2022-09-09T14:36:11.909Z,25.45
2022-09-09T14:39:15.616Z,25.23
2022-09-09T14:42:19.841Z,25.13
2022-09-09T14:45:25.921Z,23.52
2022-09-09T14:48:32.583Z,24.15
2022-09-09T14:51:36.498Z,23.58
2022-09-09T14:54:39.977Z,24.55
2022-09-09T14:57:44.521Z,25.35
2022-09-09T15:00:48.228Z,26.95
2022-09-09T15:03:55.506Z,25.85
2022-09-09T15:06:59.974Z,25.17
2022-09-09T15:10:04.415Z,27.27
2022-09-09T15:13:08.070Z,27.33
2022-09-09T15:16:14.354Z,24.85
2022-09-09T15:19:24.300Z,26.90
2022-09-09T15:22:28.381Z,28.02
2022-09-09T15:25:32.387Z,27.38
2022-09-09T15:28:41.536Z,29.00
2022-09-09T15:31:51.444Z,29.67
2022-09-09T15:38:28.349Z,31.15
2022-09-09T15:41:42.277Z,31.75
2022-09-09T15:44:50.042Z,30.10
2022-09-09T15:47:56.815Z,31.50
2022-09-09T15:51:31.040Z,32.65
2022-09-09T15:54:40.918Z,35.05
2022-09-09T15:57:53.315Z,32.05
2022-09-09T16:01:08.270Z,30.17
2022-09-09T16:04:12.960Z,30.60
2022-09-09T16:07:20.182Z,29.52
2022-09-09T16:10:24.930Z,30.58
2022-09-09T16:13:29.132Z,69.75
2022-09-09T16:16:36.042Z,34.55
2022-09-09T16:19:46.964Z,32.83
2022-09-09T16:22:52.691Z,31.38
2022-09-09T16:26:05.914Z,35.50
2022-09-09T16:29:11.108Z,36.75
2022-09-09T16:32:15.990Z,37.03
2022-09-09T16:35:20.682Z,47.30
2022-09-09T16:38:26.437Z,39.67
2022-09-09T16:41:31.640Z,41.22
2022-09-09T16:44:35.345Z,39.90
2022-09-09T16:47:41.215Z,39.80
2022-09-09T16:50:46.158Z,39.80
2022-09-09T16:53:51.372Z,38.53
2022-09-09T16:56:55.583Z,39.10
2022-09-09T17:00:03.430Z,39.15
2022-09-09T17:03:08.594Z,41.20
2022-09-09T17:06:13.057Z,42.72
2022-09-09T17:09:21.622Z,44.33
2022-09-09T17:12:26.149Z,45.40
2022-09-09T17:15:31.572Z,45.45
2022-09-09T17:18:35.418Z,46.85
2022-09-09T17:21:54.950Z,50.15
2022-09-09T17:25:06.233Z,46.88
2022-09-09T17:28:10.025Z,47.60
2022-09-09T17:31:20.677Z,47.22
2022-09-09T17:34:25.213Z,47.33
2022-09-09T17:37:29.419Z,44.47
2022-09-09T17:40:35.026Z,44.20
2022-09-09T17:43:40.013Z,41.88
2022-09-09T17:46:46.574Z,41.13
2022-09-09T17:49:51.129Z,41.63
2022-09-09T17:52:55.174Z,41.22
2022-09-09T17:56:05.340Z,39.45
2022-09-09T17:59:12.491Z,47.15
2022-09-09T18:02:16.796Z,44.42
2022-09-09T18:05:21.669Z,41.08
2022-09-09T18:08:26.114Z,40.72
2022-09-09T18:11:33.629Z,38.95
2022-09-09T18:14:37.378Z,39.13
2022-09-09T18:17:41.349Z,34.67
2022-09-09T18:20:45.665Z,35.70
2022-09-09T18:23:52.393Z,34.47
2022-09-09T18:26:58.375Z,33.83
2022-09-09T18:30:02.631Z,34.60
2022-09-09T18:33:07.323Z,34.97
2022-09-09T18:36:15.522Z,35.55
2022-09-09T18:39:20.851Z,37.22
2022-09-09T18:42:26.972Z,38.38
2022-09-09T18:45:31.135Z,38.83
2022-09-09T18:48:36.001Z,41.50
2022-09-09T18:51:44.630Z,79.40
2022-09-09T18:54:51.227Z,36.83
2022-09-09T18:58:00.525Z,35.63
2022-09-09T19:01:08.093Z,37.03
2022-09-09T19:04:12.463Z,34.08
2022-09-09T19:07:19.294Z,36.05
2022-09-09T19:10:23.774Z,39.63
2022-09-09T19:13:29.634Z,42.88
2022-09-09T19:16:35.917Z,44.72
2022-09-09T19:19:42.494Z,47.15
2022-09-09T19:22:47.474Z,44.97
2022-09-09T19:25:52.999Z,45.65
2022-09-09T19:29:00.259Z,46.97
2022-09-09T19:35:28.923Z,47.97
2022-09-09T19:38:33.636Z,48.35
2022-09-09T19:41:40.379Z,46.20
2022-09-09T19:44:45.598Z,42.85
2022-09-09T19:47:49.140Z,40.80
2022-09-09T19:50:52.741Z,39.15
2022-09-09T19:53:58.913Z,32.90
2022-09-09T19:57:03.078Z,30.42
2022-09-09T20:00:10.843Z,30.02
2022-09-09T20:03:20.066Z,28.73
2022-09-09T20:06:28.307Z,27.42
2022-09-09T20:09:31.667Z,26.33
2022-09-09T20:12:35.111Z,26.25
2022-09-09T20:15:39.996Z,27.33
2022-09-09T20:18:45.390Z,25.23
2022-09-09T20:21:50.587Z,26.80
2022-09-09T20:24:55.146Z,28.05
2022-09-09T20:27:58.906Z,26.52
2022-09-09T20:31:07.961Z,27.10
2022-09-09T20:34:14.409Z,27.48
2022-09-09T20:37:21.382Z,30.33
2022-09-09T20:40:27.592Z,29.40
2022-09-09T20:43:34.286Z,26.90
2022-09-09T20:46:42.948Z,26.83
2022-09-09T20:49:46.393Z,26.98
2022-09-09T20:52:49.716Z,25.65
2022-09-09T20:55:53.432Z,25.02
2022-09-09T20:58:56.937Z,25.75
2022-09-09T21:02:03.350Z,29.33
2022-09-09T21:05:08.456Z,27.15
2022-09-09T21:08:12.139Z,27.98
2022-09-09T21:11:17.232Z,27.52
2022-09-09T21:14:20.683Z,27.35
2022-09-09T21:17:25.609Z,27.65
2022-09-09T21:20:29.053Z,27.02
2022-09-09T21:23:32.852Z,27.17
2022-09-09T21:26:36.987Z,27.95
2022-09-09T21:29:40.893Z,27.10
2022-09-09T21:32:46.916Z,27.75
2022-09-09T21:35:51.074Z,26.88
2022-09-09T21:38:54.562Z,24.95
2022-09-09T21:41:59.123Z,27.17
2022-09-09T21:45:02.661Z,27.55
2022-09-09T21:48:08.281Z,27.83
2022-09-09T21:51:13.251Z,27.65
2022-09-09T21:54:16.891Z,25.52
2022-09-09T21:57:24.775Z,23.90
2022-09-09T22:00:28.442Z,21.38
2022-09-09T22:03:33.463Z,21.45
2022-09-09T22:06:36.895Z,21.60
2022-09-09T22:09:40.541Z,20.00
2022-09-09T22:12:43.935Z,19.13
2022-09-09T22:15:48.441Z,19.35
2022-09-09T22:18:56.950Z,19.40
2022-09-09T22:22:00.865Z,19.35
2022-09-09T22:25:04.298Z,19.30
2022-09-09T22:28:09.887Z,19.67
2022-09-09T22:31:13.481Z,18.20
2022-09-09T22:34:21.177Z,19.58
2022-09-09T22:37:25.007Z,19.30
2022-09-09T22:40:28.656Z,19.05
2022-09-09T22:43:34.040Z,20.33
2022-09-09T22:46:38.681Z,18.48
2022-09-09T22:49:44.461Z,19.25
2022-09-09T22:52:48.933Z,20.33
2022-09-09T22:56:00.441Z,20.77
2022-09-09T22:59:04.269Z,19.80
2022-09-09T23:02:07.992Z,20.45
2022-09-09T23:05:12.875Z,21.90
2022-09-09T23:08:18.794Z,21.65
2022-09-09T23:11:22.951Z,23.55
2022-09-09T23:14:27.038Z,22.63
2022-09-09T23:17:32.089Z,22.40
2022-09-09T23:20:36.925Z,23.77
2022-09-09T23:23:41.340Z,23.50
2022-09-09T23:26:46.574Z,23.08
2022-09-09T23:29:50.966Z,23.15
2022-09-09T23:32:54.409Z,21.65
2022-09-09T23:36:03.968Z,21.50
2022-09-09T23:39:09.125Z,20.70
2022-09-09T23:42:14.073Z,21.35
2022-09-09T23:45:18.487Z,21.23
2022-09-09T23:48:22.123Z,21.30
2022-09-09T23:51:30.643Z,21.30
2022-09-09T23:54:35.286Z,21.50
2022-09-09T23:57:39.150Z,21.48
